Joyant — WCU3465 — position and weather

sailwx.info

Track history (hours):
 
Tides and Currents Weather Stations Pressure Air Temp Water Temp Dewpoint Dewpoint Depression Visibility Wind Speed Wind Dir Waves Ship Positions

Joyant

Owner: WADLOW, THOMAS S, Stonington, CT. More information available from US FCC via Universal Licensing System and Coast Guard Vessel Documentation Center.

Last reported at 2016-Apr-24 16:14 UTC. Time now 2016-May-05 02:50 UTC.
Position N 26°27' W 079°55'.
Warning: this ship's position is 10 days out of date.

Length 16 m.

Type: Sailing vessel. MMSI: 367053390.

Date/timePositionNaut miles runAvg speedWind from/ knotsBaromVisibWave heightAir tempDewpointWater temp
2016-Apr-24 16:14N 26°27' W 079°55'5 7.4
2016-Apr-24 15:33N 26°22' W 079°57'7 6.8
2016-Apr-24 14:33N 26°15' W 079°59'7 6.5
2016-Apr-24 13:33N 26°10' W 080°02'6 5.6
2016-Apr-24 12:33N 26°06' W 080°07'1 1.0
2016-Apr-24 11:22N 26°07' W 080°06'0 0.0
2016-Apr-24 10:28N 26°07' W 080°06'0 0.0
2016-Apr-24 09:28N 26°07' W 080°06'0 0.0
2016-Apr-24 08:28N 26°07' W 080°06'0 0.0
2016-Apr-24 07:28N 26°07' W 080°06'0 0.0
2016-Apr-24 04:31N 26°07' W 080°06'0 0.0
2016-Apr-24 03:28N 26°07' W 080°06'0 0.0
2016-Apr-24 02:04N 26°07' W 080°06'0 0.0
2016-Apr-24 01:16N 26°07' W 080°06'0 0.0
2016-Apr-23 23:22N 26°07' W 080°06'0 0.0
2016-Apr-23 22:22N 26°07' W 080°06'0 0.0
2016-Apr-23 21:22N 26°07' W 080°06'0 0.0
2016-Apr-23 20:25N 26°07' W 080°06'0 0.0
2016-Apr-23 19:28N 26°07' W 080°06'0 0.0
2016-Apr-23 18:28N 26°07' W 080°06'0 0.0
2016-Apr-23 17:28N 26°07' W 080°06'1 1.0
2016-Apr-23 16:30N 26°06' W 080°07'2 2.3
2016-Apr-23 15:33N 26°06' W 080°10'1 0.5
2016-Apr-23 14:30N 26°06' W 080°10'0 0.0
2016-Apr-23 13:30N 26°06' W 080°10'0 0.0
2016-Apr-23 12:30N 26°06' W 080°10'0 0.0
2016-Apr-23 11:33N 26°06' W 080°10'0 0.0
2016-Apr-23 10:33N 26°06' W 080°10'0 0.0
2016-Apr-23 09:33N 26°06' W 080°10'0 0.0
2016-Apr-23 08:33N 26°06' W 080°10'0 0.0
2016-Apr-23 07:33N 26°06' W 080°10'0 0.0
2016-Apr-23 06:33N 26°06' W 080°10'0 0.0
2016-Apr-23 04:27N 26°06' W 080°10'0 0.0
2016-Apr-23 03:27N 26°06' W 080°10'0 0.0
2016-Apr-23 02:27N 26°06' W 080°10'0 0.0
2016-Apr-23 01:30N 26°06' W 080°10'0 0.0
2016-Apr-23 00:30N 26°06' W 080°10'0 0.0
2016-Apr-22 23:27N 26°06' W 080°10'0 0.0
2016-Apr-22 22:33N 26°06' W 080°10'  
2016-Apr-16 16:22N 26°06' W 080°10'  
Track history (hours):
 
Tides and Currents Weather Stations Pressure Air Temp Water Temp Dewpoint Dewpoint Depression Visibility Wind Speed Wind Dir Waves Ship Positions

Joyant

Owner: WADLOW, THOMAS S, Stonington, CT. More information available from US FCC via Universal Licensing System and Coast Guard Vessel Documentation Center.

Last reported at 2016-Apr-24 16:14 UTC. Time now 2016-May-05 02:50 UTC.
Position N 26°27' W 079°55'.
Warning: this ship's position is 10 days out of date.

Length 16 m.

Type: Sailing vessel. MMSI: 367053390.

Date/timePositionNaut miles runAvg speedWind from/ knotsBaromVisibWave heightAir tempDewpointWater temp
2016-Apr-24 16:14N 26°27' W 079°55'5 7.4
2016-Apr-24 15:33N 26°22' W 079°57'7 6.8
2016-Apr-24 14:33N 26°15' W 079°59'7 6.5
2016-Apr-24 13:33N 26°10' W 080°02'6 5.6
2016-Apr-24 12:33N 26°06' W 080°07'1 1.0
2016-Apr-24 11:22N 26°07' W 080°06'0 0.0
2016-Apr-24 10:28N 26°07' W 080°06'0 0.0
2016-Apr-24 09:28N 26°07' W 080°06'0 0.0
2016-Apr-24 08:28N 26°07' W 080°06'0 0.0
2016-Apr-24 07:28N 26°07' W 080°06'0 0.0
2016-Apr-24 04:31N 26°07' W 080°06'0 0.0
2016-Apr-24 03:28N 26°07' W 080°06'0 0.0
2016-Apr-24 02:04N 26°07' W 080°06'0 0.0
2016-Apr-24 01:16N 26°07' W 080°06'0 0.0
2016-Apr-23 23:22N 26°07' W 080°06'0 0.0
2016-Apr-23 22:22N 26°07' W 080°06'0 0.0
2016-Apr-23 21:22N 26°07' W 080°06'0 0.0
2016-Apr-23 20:25N 26°07' W 080°06'0 0.0
2016-Apr-23 19:28N 26°07' W 080°06'0 0.0
2016-Apr-23 18:28N 26°07' W 080°06'0 0.0
2016-Apr-23 17:28N 26°07' W 080°06'1 1.0
2016-Apr-23 16:30N 26°06' W 080°07'2 2.3
2016-Apr-23 15:33N 26°06' W 080°10'1 0.5
2016-Apr-23 14:30N 26°06' W 080°10'0 0.0
2016-Apr-23 13:30N 26°06' W 080°10'0 0.0
2016-Apr-23 12:30N 26°06' W 080°10'0 0.0
2016-Apr-23 11:33N 26°06' W 080°10'0 0.0
2016-Apr-23 10:33N 26°06' W 080°10'0 0.0
2016-Apr-23 09:33N 26°06' W 080°10'0 0.0
2016-Apr-23 08:33N 26°06' W 080°10'0 0.0
2016-Apr-23 07:33N 26°06' W 080°10'0 0.0
2016-Apr-23 06:33N 26°06' W 080°10'0 0.0
2016-Apr-23 04:27N 26°06' W 080°10'0 0.0
2016-Apr-23 03:27N 26°06' W 080°10'0 0.0
2016-Apr-23 02:27N 26°06' W 080°10'0 0.0
2016-Apr-23 01:30N 26°06' W 080°10'0 0.0
2016-Apr-23 00:30N 26°06' W 080°10'0 0.0
2016-Apr-22 23:27N 26°06' W 080°10'0 0.0
2016-Apr-22 22:33N 26°06' W 080°10'  
2016-Apr-16 16:22N 26°06' W 080°10'  

Dump ship's entire track history